This is the latest recevied weather packets stored in our database for station/object KJ7BRE-1. If no packets are shown the sender has not sent any weather packets the latest 10 day(s).
| Time | Temp. | Humidity | Pressure | Rain* | Wind** | Luminosity | Snow |
|---|---|---|---|---|---|---|---|
| 1787935798 | 17.78° C | 69% | 1016.9 hPa | 0 mm | - | - | - |
| 1787935497 | 17.78° C | 71% | 1016.9 hPa | 0 mm | - | - | - |
| 1787935196 | 17.78° C | 73% | 1016.9 hPa | 0 mm | - | - | - |
| 1787934894 | 17.78° C | 73% | 1017.3 hPa | 0 mm | - | - | - |
| 1787934593 | 17.78° C | 73% | 1017.3 hPa | 0 mm | - | - | - |
| 1787934292 | 17.78° C | 75% | 1017.3 hPa | 0 mm | - | - | - |
| 1787933991 | 17.78° C | 74% | 1017.3 hPa | 0 mm | - | - | - |
| 1787933689 | 17.22° C | 75% | 1017.3 hPa | 0 mm | - | - | - |
| 1787933388 | 17.22° C | 75% | 1016.9 hPa | 0 mm | - | - | - |
| 1787933087 | 17.78° C | 74% | 1017.3 hPa | 0 mm | - | - | - |
| 1787932786 | 17.78° C | 75% | 1017.3 hPa | 0 mm | - | - | - |
| 1787932485 | 17.78° C | 74% | 1016.9 hPa | 0 mm | - | - | - |
| 1787932183 | 17.78° C | 74% | 1017.3 hPa | 0 mm | - | - | - |
| 1787931882 | 17.78° C | 75% | 1017.3 hPa | 0 mm | - | - | - |
| 1787931581 | 17.22° C | 76% | 1017.3 hPa | 0 mm | - | - | - |
| 1787931280 | 17.22° C | 76% | 1017.3 hPa | 0 mm | - | - | - |
| 1787930979 | 17.78° C | 74% | 1017.3 hPa | 0 mm | - | - | - |
| 1787930677 | 17.78° C | 73% | 1017.3 hPa | 0 mm | - | - | - |
| 1787930376 | 17.78° C | 76% | 1017.3 hPa | 0 mm | - | - | - |
| 1787930075 | 16.67° C | 78% | 1017.3 hPa | 0 mm | - | - | - |
| 1787929774 | 16.67° C | 77% | 1017.3 hPa | 0 mm | - | - | - |
| 1787929473 | 16.11° C | 79% | 1017.3 hPa | 0 mm | - | - | - |
| 1787929171 | 15.56° C | 81% | 1017.3 hPa | 0 mm | - | - | - |
| 1787928870 | 15.56° C | 81% | 1017.3 hPa | 0 mm | - | - | - |
| 1787928569 | 15° C | 81% | 1016.9 hPa | 0 mm | - | - | - |
* Rain latest hour (hover to see other rain measurements)
** Current wind speed in m/s (hover to see current wind gust speed)